TimeEDT,TemperatureF,Dew PointF,Humidity,Sea Level PressureIn,VisibilityMPH,Wind Direction,Wind SpeedMPH,Gust SpeedMPH,PrecipitationIn,Events,Conditions,WindDirDegrees,DateUTC
12:52 AM,64.0,60.1,87,29.82,10.0,West,6.9,-,N/A,,Clear,280,2013-09-04 04:52:00
1:52 AM,63.0,57.9,84,29.82,10.0,West,4.6,-,N/A,,Clear,260,2013-09-04 05:52:00
2:52 AM,62.1,57.0,84,29.82,10.0,West,5.8,-,N/A,,Clear,270,2013-09-04 06:52:00
3:52 AM,61.0,55.9,83,29.83,10.0,West,6.9,-,N/A,,Clear,260,2013-09-04 07:52:00
4:52 AM,61.0,55.9,83,29.84,10.0,West,6.9,-,N/A,,Clear,270,2013-09-04 08:52:00
5:52 AM,60.1,55.9,86,29.86,10.0,West,5.8,-,N/A,,Clear,260,2013-09-04 09:52:00
6:52 AM,59.0,55.0,87,29.88,10.0,West,5.8,-,N/A,,Clear,280,2013-09-04 10:52:00
7:52 AM,62.1,57.0,84,29.89,10.0,West,10.4,-,N/A,,Clear,280,2013-09-04 11:52:00
8:52 AM,66.9,57.9,73,29.90,10.0,WNW,8.1,-,N/A,,Clear,300,2013-09-04 12:52:00
9:52 AM,71.1,59.0,66,29.91,10.0,WNW,6.9,-,N/A,,Clear,290,2013-09-04 13:52:00
10:52 AM,73.9,57.0,55,29.90,10.0,WNW,8.1,-,N/A,,Clear,290,2013-09-04 14:52:00
11:52 AM,77.0,57.9,52,29.90,10.0,West,9.2,-,N/A,,Clear,280,2013-09-04 15:52:00
12:52 PM,78.1,55.9,46,29.88,10.0,WNW,10.4,-,N/A,,Clear,290,2013-09-04 16:52:00
1:52 PM,78.1,55.0,45,29.88,10.0,WSW,11.5,-,N/A,,Clear,250,2013-09-04 17:52:00
2:52 PM,80.1,55.0,42,29.88,10.0,West,13.8,-,N/A,,Clear,270,2013-09-04 18:52:00
3:52 PM,80.1,55.0,42,29.88,10.0,West,11.5,-,N/A,,Clear,260,2013-09-04 19:52:00
4:52 PM,79.0,55.0,44,29.88,10.0,West,10.4,-,N/A,,Clear,270,2013-09-04 20:52:00
5:52 PM,78.1,55.9,46,29.87,10.0,West,11.5,-,N/A,,Clear,260,2013-09-04 21:52:00
6:52 PM,73.9,55.9,53,29.88,10.0,West,8.1,-,N/A,,Clear,260,2013-09-04 22:52:00
7:52 PM,71.1,55.9,59,29.91,10.0,SSW,3.5,-,N/A,,Clear,210,2013-09-04 23:52:00
8:52 PM,68.0,57.0,68,29.92,10.0,SSW,3.5,-,N/A,,Partly Cloudy,210,2013-09-05 00:52:00
9:52 PM,66.9,57.0,70,29.93,10.0,SSW,4.6,-,N/A,,Mostly Cloudy,210,2013-09-05 01:52:00
10:52 PM,64.0,57.9,80,29.94,10.0,South,3.5,-,N/A,,Partly Cloudy,190,2013-09-05 02:52:00
11:52 PM,64.9,59.0,81,29.94,10.0,Calm,Calm,-,N/A,,Mostly Cloudy,0,2013-09-05 03:52:00